Time;durP1;ratioP1;P1;durP2;ratioP2;P2;SDS_P1;SDS_P2;PMS_P1;PMS_P2;Temp;Humidity;BMP_temperature;BMP_pressure;BME280_temperature;BME280_humidity;BME280_pressure;Samples;Min_cycle;Max_cycle;Signal;HPM_P1;HPM_P2
2022/11/06 00:01:59;;;;;;;2.38;1.83;;;;;;;6.51;93.19;100978.16;5032998;28;20042;-80
2022/11/06 00:04:29;;;;;;;4.55;1.52;;;;;;;6.58;93.74;100977.41;5034743;28;20045;-77
2022/11/06 00:06:55;;;;;;;4.13;1.92;;;;;;;6.65;93.35;100975.75;5025889;28;20065;-76
2022/11/06 00:09:21;;;;;;;4.13;2.60;;;;;;;6.72;92.86;100971.47;5028277;28;20092;-75
2022/11/06 00:11:51;;;;;;;4.25;2.30;;;;;;;6.76;92.48;100973.25;5032110;28;20444;-78
2022/11/06 00:14:18;;;;;;;5.53;2.35;;;;;;;6.81;92.58;100966.38;5035702;28;20049;-76
2022/11/06 00:16:47;;;;;;;3.13;1.92;;;;;;;6.85;92.50;100957.75;5028355;28;20037;-76
2022/11/06 00:19:14;;;;;;;2.47;2.10;;;;;;;6.87;92.31;100956.03;5025817;28;20045;-77
2022/11/06 00:21:40;;;;;;;8.45;4.20;;;;;;;6.84;92.33;100958.59;5030432;28;20053;-77
2022/11/06 00:24:08;;;;;;;8.75;2.65;;;;;;;6.82;92.66;100959.44;5031156;28;20156;-77
2022/11/06 00:26:35;;;;;;;2.97;1.55;;;;;;;6.80;92.97;100954.22;5044692;28;20701;-78
2022/11/06 00:29:04;;;;;;;4.20;2.55;;;;;;;6.81;93.07;100968.97;5027738;28;20053;-76
2022/11/06 00:31:35;;;;;;;3.63;2.58;;;;;;;6.84;93.26;100969.00;5011875;28;20114;-77
2022/11/06 00:34:05;;;;;;;3.15;2.58;;;;;;;6.90;92.95;100968.22;5044104;28;20118;-76
2022/11/06 00:36:32;;;;;;;5.80;2.25;;;;;;;6.93;93.32;100963.91;5008702;28;20091;-78
2022/11/06 00:39:00;;;;;;;6.45;2.10;;;;;;;6.94;93.26;100970.84;5023052;28;20072;-77
2022/11/06 00:41:27;;;;;;;4.28;2.42;;;;;;;6.95;92.79;100963.94;5017723;28;20048;-78
2022/11/06 00:44:02;;;;;;;4.53;2.08;;;;;;;6.95;93.01;100976.94;5041181;28;20065;-77
2022/11/06 00:46:28;;;;;;;3.50;2.05;;;;;;;6.97;93.34;100976.97;5011917;28;20297;-77
2022/11/06 00:48:56;;;;;;;4.60;2.05;;;;;;;6.95;93.07;100969.16;5028334;28;20041;-79
2022/11/06 00:51:38;;;;;;;4.30;1.70;;;;;;;6.99;93.35;100970.03;5029579;28;20061;-80
2022/11/06 00:54:07;;;;;;;3.05;1.90;;;;;;;7.01;93.55;100963.13;5025228;28;20045;-85
2022/11/06 00:56:34;;;;;;;2.85;2.00;;;;;;;7.03;93.35;100971.84;5024512;28;20488;-79
2022/11/06 00:59:05;;;;;;;6.18;2.03;;;;;;;7.02;93.25;100968.34;5028674;28;20049;-79
2022/11/06 01:01:38;;;;;;;5.05;2.25;;;;;;;7.03;93.35;100966.63;5021852;28;20042;-77
2022/11/06 01:04:12;;;;;;;3.42;1.83;;;;;;;7.04;93.75;100966.63;5037475;28;20041;-80
2022/11/06 01:06:45;;;;;;;3.78;2.17;;;;;;;7.07;93.23;100969.25;5022821;28;20050;-79
2022/11/06 01:09:17;;;;;;;1.65;1.50;;;;;;;7.08;92.99;100972.75;5030307;28;20046;-81
2022/11/06 01:11:48;;;;;;;1.83;1.70;;;;;;;7.08;93.17;100962.34;5025702;28;20049;-78
2022/11/06 01:14:18;;;;;;;3.88;2.30;;;;;;;7.03;93.56;100959.69;5025945;28;20137;-77
2022/11/06 01:16:46;;;;;;;3.70;2.00;;;;;;;6.99;93.54;100970.91;5023182;28;20052;-76
2022/11/06 01:19:15;;;;;;;2.70;1.65;;;;;;;6.96;93.68;100965.66;5043250;28;20049;-77
2022/11/06 01:21:46;;;;;;;3.80;1.83;;;;;;;6.95;94.16;100962.19;5025700;28;20943;-76
2022/11/06 01:24:24;;;;;;;2.03;1.92;;;;;;;6.96;94.33;100963.06;5025993;28;20054;-77
2022/11/06 01:26:53;;;;;;;4.75;2.10;;;;;;;7.00;94.33;100961.38;5019782;28;20126;-78
2022/11/06 01:29:20;;;;;;;7.68;2.58;;;;;;;7.04;94.20;100958.84;5040283;28;20058;-77
2022/11/06 01:31:49;;;;;;;3.75;2.20;;;;;;;7.09;93.06;100945.84;5030714;28;20068;-79
2022/11/06 01:34:16;;;;;;;8.60;2.25;;;;;;;7.07;93.59;100952.78;5023533;28;20056;-80
2022/11/06 01:36:43;;;;;;;2.53;2.10;;;;;;;7.00;93.56;100945.75;5024864;28;20047;-78
2022/11/06 01:39:14;;;;;;;3.60;2.22;;;;;;;6.97;94.05;100950.94;5037782;28;20136;-78
2022/11/06 01:41:45;;;;;;;3.88;2.53;;;;;;;6.90;94.32;100944.78;5028062;28;20045;-75
2022/11/06 01:44:43;;;;;;;4.38;2.33;;;;;;;6.80;94.77;100941.22;5038955;28;20076;-78
2022/11/06 01:47:28;;;;;;;3.35;2.25;;;;;;;6.70;95.21;100931.53;5020477;28;20064;-78
2022/11/06 01:50:00;;;;;;;3.20;2.17;;;;;;;6.61;95.68;100937.53;5025566;28;20045;-77
2022/11/06 01:52:29;;;;;;;3.05;2.25;;;;;;;6.56;96.21;100939.22;5021284;28;20579;-80
2022/11/06 01:55:09;;;;;;;1.75;1.65;;;;;;;6.58;96.49;100935.78;5021725;28;20049;-79
2022/11/06 01:57:35;;;;;;;2.83;2.00;;;;;;;6.66;96.68;100942.78;5027093;28;20041;-78
2022/11/06 02:00:04;;;;;;;5.47;2.53;;;;;;;6.74;96.23;100942.03;5020723;28;20037;-79
2022/11/06 02:02:30;;;;;;;6.07;2.38;;;;;;;6.86;95.73;100935.22;5018004;28;20124;-79
2022/11/06 02:04:59;;;;;;;3.80;2.15;;;;;;;6.94;94.26;100936.16;5041457;28;20056;-77
2022/11/06 02:07:26;;;;;;;4.22;2.78;;;;;;;7.01;94.10;100934.50;5025116;28;20042;-77
2022/11/06 02:09:53;;;;;;;4.15;2.15;;;;;;;7.05;93.61;100928.44;5019938;28;20048;-82
2022/11/06 02:13:20;;;;;;;3.97;1.98;;;;;;;7.11;93.01;100936.34;5027569;28;20768;-78
2022/11/06 02:16:00;;;;;;;2.97;2.10;;;;;;;7.13;92.86;100942.41;5022224;28;20047;-79
2022/11/06 02:18:49;;;;;;;2.67;1.95;;;;;;;7.12;92.74;100936.34;5003699;28;20057;-83
2022/11/06 02:21:54;;;;;;;2.13;1.92;;;;;;;7.07;93.09;100930.22;5038038;28;20500;-78
2022/11/06 02:24:33;;;;;;;3.70;2.17;;;;;;;7.01;93.57;100927.53;5022473;28;20050;-80
2022/11/06 02:27:25;;;;;;;2.47;1.83;;;;;;;7.01;93.13;100927.53;5024305;28;20061;-81
2022/11/06 02:30:04;;;;;;;3.30;3.00;;;;;;;7.01;93.15;100926.69;5014860;28;20088;-80
2022/11/06 02:32:41;;;;;;;3.75;2.33;;;;;;;6.99;93.00;100913.66;5041887;28;20060;-86
2022/11/06 02:35:49;;;;;;;5.28;2.83;;;;;;;7.01;93.08;100917.13;5040666;28;20096;-77
2022/11/06 02:38:25;;;;;;;2.60;2.25;;;;;;;7.03;93.23;100909.38;5009733;28;20061;-78
2022/11/06 02:41:05;;;;;;;4.28;3.08;;;;;;;7.02;93.29;100902.41;5033266;28;20045;-78
2022/11/06 02:43:40;;;;;;;2.50;2.17;;;;;;;6.96;93.28;100892.78;5030685;28;20094;-79
2022/11/06 02:46:20;;;;;;;2.70;2.50;;;;;;;6.89;93.28;100899.66;5025585;28;20551;-81
2022/11/06 02:49:03;;;;;;;3.22;2.92;;;;;;;6.86;93.84;100893.59;5028458;28;20041;-78
2022/11/06 02:51:37;;;;;;;4.65;3.00;;;;;;;6.79;94.16;100893.50;5042111;28;20073;-77
2022/11/06 02:54:07;;;;;;;5.38;3.60;;;;;;;6.75;94.78;100883.94;5022006;28;20140;-87
2022/11/06 02:56:39;;;;;;;4.40;2.63;;;;;;;6.70;95.34;100897.72;5044084;28;20049;-76
2022/11/06 02:59:13;;;;;;;5.32;3.63;;;;;;;6.61;95.97;100896.78;5047806;28;20060;-76
2022/11/06 03:01:57;;;;;;;3.15;2.85;;;;;;;6.54;96.31;100900.16;5029411;28;20480;-84
2022/11/06 03:04:35;;;;;;;11.68;3.60;;;;;;;6.45;97.51;100902.66;5047023;28;20626;-78
2022/11/06 03:07:11;;;;;;;6.20;3.83;;;;;;;6.37;97.81;100896.50;5033698;28;20041;-75
2022/11/06 03:09:38;;;;;;;3.95;3.45;;;;;;;6.26;98.67;100897.22;5010896;28;20050;-82
2022/11/06 03:12:33;;;;;;;4.47;3.00;;;;;;;6.19;99.59;100887.63;5025334;28;20041;-83
2022/11/06 03:15:26;;;;;;;6.97;3.85;;;;;;;6.14;100.00;100889.28;5030739;28;20099;-77
2022/11/06 03:18:19;;;;;;;4.88;3.42;;;;;;;6.06;100.00;100885.69;5034623;28;20345;-81
2022/11/06 03:21:08;;;;;;;4.15;3.67;;;;;;;5.97;100.00;100882.09;5031293;28;20102;-78
2022/11/06 03:23:43;;;;;;;5.43;3.17;;;;;;;5.94;100.00;100875.97;5035374;28;20044;-76
2022/11/06 03:26:21;;;;;;;3.47;3.17;;;;;;;5.94;100.00;100879.47;5048418;28;20389;-77
2022/11/06 03:29:10;;;;;;;5.45;2.53;;;;;;;5.90;100.00;100871.59;5028147;28;20397;-79
2022/11/06 03:31:47;;;;;;;5.25;3.30;;;;;;;5.80;100.00;100863.69;5035771;28;20124;-83
2022/11/06 03:34:59;;;;;;;9.32;3.88;;;;;;;5.83;100.00;100868.03;5011656;28;20053;-78
2022/11/06 03:37:36;;;;;;;5.50;3.15;;;;;;;5.80;100.00;100855.88;5042309;28;20485;-81
2022/11/06 03:40:10;;;;;;;6.90;3.55;;;;;;;5.88;100.00;100863.78;5029144;28;20042;-81
2022/11/06 03:42:40;;;;;;;4.63;3.40;;;;;;;5.84;100.00;100858.50;5040898;28;20052;-77
2022/11/06 03:45:14;;;;;;;8.43;4.20;;;;;;;5.79;100.00;100855.88;5028491;28;20048;-85
2022/11/06 03:47:52;;;;;;;5.53;3.53;;;;;;;5.75;100.00;100856.66;5031036;28;20041;-78
2022/11/06 03:50:47;;;;;;;3.90;3.33;;;;;;;5.72;100.00;100862.72;5025483;28;20048;-77
2022/11/06 03:53:24;;;;;;;6.70;4.00;;;;;;;5.77;100.00;100865.34;5028833;28;20088;-78
2022/11/06 03:56:02;;;;;;;5.50;3.55;;;;;;;5.77;100.00;100867.94;5029948;28;20042;-77
2022/11/06 03:58:36;;;;;;;4.97;3.45;;;;;;;5.80;100.00;100871.47;5034006;28;20051;-78
2022/11/06 04:01:06;;;;;;;8.40;3.17;;;;;;;5.77;100.00;100867.94;5024718;28;20160;-85
2022/11/06 04:03:41;;;;;;;6.40;3.08;;;;;;;5.80;100.00;100866.28;5031003;28;20038;-80
2022/11/06 04:06:23;;;;;;;6.25;3.90;;;;;;;5.84;100.00;100868.91;5031673;28;20076;-77
2022/11/06 04:14:27;;;;;;;5.22;3.65;;;;;;;5.99;100.00;100863.94;5027935;28;20033;-77
2022/11/06 04:16:59;;;;;;;4.72;3.03;;;;;;;6.07;100.00;100857.13;5027763;28;20049;-77
2022/11/06 04:19:26;;;;;;;7.00;3.90;;;;;;;6.14;100.00;100852.91;5044816;28;20076;-77
2022/11/06 04:22:30;;;;;;;5.55;3.38;;;;;;;6.20;100.00;100852.94;5004028;28;20133;-76
2022/11/06 04:28:42;;;;;;;4.88;3.13;;;;;;;6.25;100.00;100845.22;5044527;28;20037;-76
2022/11/06 04:31:28;;;;;;;6.45;3.10;;;;;;;6.21;100.00;100848.66;5027171;28;20046;-77
2022/11/06 04:34:17;;;;;;;3.90;2.78;;;;;;;6.22;100.00;100859.06;5025595;28;20049;-78
2022/11/06 04:36:56;;;;;;;6.72;4.63;;;;;;;6.16;100.00;100860.72;5012696;28;20400;-80
2022/11/06 04:39:29;;;;;;;8.55;3.50;;;;;;;6.11;100.00;100858.03;5030880;28;20103;-78
2022/11/06 04:42:06;;;;;;;4.13;2.95;;;;;;;6.06;100.00;100860.59;5014697;28;20041;-81
2022/11/06 04:44:40;;;;;;;3.88;3.22;;;;;;;6.01;100.00;100857.06;5021260;28;20047;-81
2022/11/06 04:47:11;;;;;;;6.72;2.88;;;;;;;6.03;100.00;100857.06;5040888;28;20038;-75
2022/11/06 04:49:41;;;;;;;4.72;3.10;;;;;;;6.07;100.00;100858.84;5029894;28;20124;-77
2022/11/06 04:52:14;;;;;;;4.03;2.67;;;;;;;6.09;100.00;100859.75;5026372;28;20041;-78
2022/11/06 04:54:41;;;;;;;5.10;3.38;;;;;;;6.12;100.00;100865.00;5026584;28;20045;-76
2022/11/06 04:57:07;;;;;;;5.75;3.28;;;;;;;6.15;100.00;100866.75;5030210;28;20057;-78
2022/11/06 04:59:38;;;;;;;8.43;3.40;;;;;;;6.15;100.00;100862.41;5030054;28;20037;-77
2022/11/06 05:02:06;;;;;;;10.77;4.30;;;;;;;6.16;100.00;100865.91;5029796;28;20051;-77
2022/11/06 05:04:33;;;;;;;5.57;3.10;;;;;;;6.16;100.00;100860.72;5026953;28;20053;-77
2022/11/06 05:07:00;;;;;;;6.72;4.53;;;;;;;6.10;100.00;100858.88;5028566;28;20056;-78
2022/11/06 05:09:26;;;;;;;6.15;3.47;;;;;;;6.05;100.00;100863.16;5038713;28;20117;-77
2022/11/06 05:11:53;;;;;;;7.07;4.60;;;;;;;6.00;100.00;100859.63;5021050;28;20137;-78
2022/11/06 05:14:19;;;;;;;6.70;5.40;;;;;;;5.92;100.00;100855.19;5052907;28;20519;-76
2022/11/06 05:16:46;;;;;;;4.57;3.70;;;;;;;5.94;100.00;100865.59;5029347;28;20476;-79
2022/11/06 05:19:12;;;;;;;9.25;3.60;;;;;;;5.96;100.00;100854.34;5047115;28;20572;-76
2022/11/06 05:24:23;;;;;;;;;;;;;;;5.93;100.00;100856.94;5021533;28;20164;-77
2022/11/06 05:26:49;;;;;;;3.03;2.17;;;;;;;5.92;100.00;100859.50;5041156;28;20020;-77
2022/11/06 05:29:16;;;;;;;3.20;2.47;;;;;;;5.99;100.00;100850.09;5046928;28;20100;-78
2022/11/06 05:31:42;;;;;;;3.35;2.83;;;;;;;6.05;100.00;100842.34;5031010;28;20112;-76
2022/11/06 05:34:09;;;;;;;5.55;2.42;;;;;;;6.08;100.00;100852.81;5028123;28;20133;-76
2022/11/06 05:36:36;;;;;;;3.58;2.47;;;;;;;6.13;100.00;100851.16;5028416;28;20120;-76
2022/11/06 05:39:02;;;;;;;6.75;2.88;;;;;;;6.25;100.00;100851.28;5008994;28;20045;-76
2022/11/06 05:41:29;;;;;;;6.65;2.95;;;;;;;6.31;100.00;100857.41;5031851;28;20065;-76
2022/11/06 05:43:56;;;;;;;3.22;2.65;;;;;;;6.38;100.00;100852.31;5046943;28;20056;-78
2022/11/06 05:46:23;;;;;;;2.95;2.20;;;;;;;6.38;100.00;100843.63;5015474;28;20068;-77
2022/11/06 05:48:49;;;;;;;5.20;2.97;;;;;;;6.35;100.00;100841.88;5040832;28;20047;-76
2022/11/06 05:51:16;;;;;;;8.13;3.03;;;;;;;6.25;100.00;100834.81;5046142;28;20045;-76
2022/11/06 05:53:43;;;;;;;8.13;2.65;;;;;;;6.13;100.00;100832.94;5044665;28;20091;-77
2022/11/06 05:56:09;;;;;;;4.65;2.80;;;;;;;6.01;100.00;100819.78;5034670;28;20045;-77
2022/11/06 05:58:35;;;;;;;5.43;3.38;;;;;;;5.92;100.00;100824.00;5043665;28;20120;-82
2022/11/06 06:01:02;;;;;;;3.15;2.33;;;;;;;5.81;100.00;100817.78;5029316;28;20041;-77
2022/11/06 06:03:29;;;;;;;8.73;2.42;;;;;;;5.72;100.00;100815.94;5042391;28;20049;-79
2022/11/06 06:05:55;;;;;;;3.80;2.17;;;;;;;5.67;100.00;100814.13;5029622;28;20041;-84
2022/11/06 06:08:22;;;;;;;3.15;2.95;;;;;;;5.65;100.00;100818.44;5024103;28;20124;-76
2022/11/06 06:10:48;;;;;;;5.32;2.70;;;;;;;5.63;100.00;100826.19;5027131;28;20033;-79
2022/11/06 06:13:16;;;;;;;4.78;2.80;;;;;;;5.64;100.00;100825.34;5036523;28;20053;-76
2022/11/06 06:15:43;;;;;;;6.10;3.35;;;;;;;5.65;100.00;100819.31;5034494;28;20037;-78
2022/11/06 06:18:11;;;;;;;4.03;2.67;;;;;;;5.67;100.00;100815.00;5020985;28;20389;-76
2022/11/06 06:20:38;;;;;;;5.03;2.65;;;;;;;5.72;100.00;100820.25;5028097;28;20041;-81
2022/11/06 06:23:05;;;;;;;5.97;3.08;;;;;;;5.73;100.00;100822.00;5032114;28;20131;-76
2022/11/06 06:25:32;;;;;;;7.18;3.55;;;;;;;5.72;100.00;100825.44;5045556;28;20641;-76
2022/11/06 06:27:58;;;;;;;4.85;3.28;;;;;;;5.73;100.00;100828.06;5026115;28;20045;-77
2022/11/06 06:30:25;;;;;;;12.80;3.72;;;;;;;5.79;100.00;100809.09;5035882;28;20033;-80
2022/11/06 06:32:52;;;;;;;3.30;2.75;;;;;;;5.76;100.00;100809.94;5029041;28;20045;-80
2022/11/06 06:35:19;;;;;;;3.95;3.00;;;;;;;5.75;100.00;100817.69;5027341;28;20063;-76
2022/11/06 06:37:55;;;;;;;5.60;3.60;;;;;;;5.75;100.00;100812.50;5030561;28;20150;-80
2022/11/06 06:40:22;;;;;;;6.70;3.25;;;;;;;5.70;100.00;100809.00;5031728;28;20046;-77
2022/11/06 06:42:49;;;;;;;3.28;2.83;;;;;;;5.67;100.00;100806.34;5031071;28;20561;-80
2022/11/06 06:45:16;;;;;;;4.80;3.22;;;;;;;5.62;100.00;100807.16;5029003;28;20110;-79
2022/11/06 06:47:42;;;;;;;7.82;4.20;;;;;;;5.66;100.00;100800.28;5009472;28;20049;-77
2022/11/06 06:50:09;;;;;;;21.52;4.40;;;;;;;5.66;100.00;100797.69;5027158;28;20779;-79
2022/11/06 06:52:36;;;;;;;9.45;4.05;;;;;;;5.65;100.00;100789.88;5029879;28;20052;-77
2022/11/06 06:55:02;;;;;;;8.73;4.18;;;;;;;5.68;100.00;100802.88;5044748;28;20044;-77
2022/11/06 06:57:29;;;;;;;5.60;3.55;;;;;;;5.61;100.00;100808.00;5016958;28;20046;-77
2022/11/06 06:59:56;;;;;;;5.95;4.00;;;;;;;5.63;100.00;100808.91;5021354;28;20050;-77
2022/11/06 07:02:22;;;;;;;8.05;3.85;;;;;;;5.62;100.00;100809.75;5043316;28;20049;-78
2022/11/06 07:04:49;;;;;;;6.05;3.53;;;;;;;5.60;100.00;100814.03;5028461;28;20141;-77
2022/11/06 07:07:15;;;;;;;7.90;3.70;;;;;;;5.63;100.00;100811.50;5036981;28;20053;-82
2022/11/06 07:09:42;;;;;;;8.15;3.67;;;;;;;5.66;100.00;100808.06;5026985;28;20608;-77
2022/11/06 07:12:08;;;;;;;9.07;4.75;;;;;;;5.67;100.00;100802.03;5030428;28;20345;-76
2022/11/06 07:14:35;;;;;;;7.43;3.90;;;;;;;5.72;100.00;100802.06;5044779;28;20113;-78
2022/11/06 07:17:01;;;;;;;6.65;3.80;;;;;;;5.76;100.00;100809.06;5034785;28;20052;-77
2022/11/06 07:19:28;;;;;;;4.18;3.60;;;;;;;5.74;100.00;100816.81;5024926;28;20498;-77
2022/11/06 07:21:54;;;;;;;7.25;2.90;;;;;;;5.82;100.00;100814.34;5044262;28;20068;-80
2022/11/06 07:24:21;;;;;;;6.22;3.58;;;;;;;5.83;100.00;100810.88;5028315;28;20057;-82
2022/11/06 07:26:47;;;;;;;4.47;3.85;;;;;;;5.92;100.00;100811.00;5030663;28;20120;-78
2022/11/06 07:29:14;;;;;;;6.72;3.35;;;;;;;6.01;100.00;100809.41;5031646;28;20048;-79
2022/11/06 07:31:40;;;;;;;4.85;3.10;;;;;;;6.06;100.00;100808.63;5032126;28;20037;-77
2022/11/06 07:34:07;;;;;;;6.10;4.20;;;;;;;6.13;100.00;100810.41;5030535;28;20054;-78
2022/11/06 07:36:35;;;;;;;7.50;4.35;;;;;;;6.21;100.00;100809.66;5030877;28;20045;-77
2022/11/06 07:39:02;;;;;;;5.75;3.53;;;;;;;6.27;100.00;100797.59;5051567;28;20045;-77
2022/11/06 07:41:28;;;;;;;4.93;3.20;;;;;;;6.35;100.00;100804.59;5037470;28;20037;-77
2022/11/06 07:43:55;;;;;;;8.13;3.75;;;;;;;6.41;100.00;100802.06;5030542;28;20411;-78
2022/11/06 07:46:21;;;;;;;4.88;3.38;;;;;;;6.49;100.00;100791.75;5033358;28;20079;-78
2022/11/06 07:48:48;;;;;;;9.98;3.95;;;;;;;6.53;100.00;100794.41;5044947;28;20128;-79
2022/11/06 07:51:15;;;;;;;6.57;4.18;;;;;;;6.61;100.00;100799.69;5030248;28;20690;-77
2022/11/06 07:53:41;;;;;;;5.47;3.53;;;;;;;6.68;100.00;100793.66;5051081;28;20484;-80
2022/11/06 07:56:08;;;;;;;6.03;3.38;;;;;;;6.74;100.00;100792.84;5025347;28;20112;-77
2022/11/06 07:58:35;;;;;;;3.88;2.92;;;;;;;6.79;100.00;100789.44;5032010;28;20040;-77
2022/11/06 08:01:02;;;;;;;8.45;3.42;;;;;;;6.77;100.00;100791.13;5033423;28;20103;-76
2022/11/06 08:03:29;;;;;;;5.40;3.45;;;;;;;6.79;100.00;100794.63;5031147;28;20045;-77
2022/11/06 08:05:58;;;;;;;3.70;3.33;;;;;;;6.79;100.00;100796.34;5026353;28;20052;-80
2022/11/06 08:08:24;;;;;;;8.07;3.58;;;;;;;6.83;100.00;100790.34;5031629;28;20056;-77
2022/11/06 08:10:52;;;;;;;4.65;3.15;;;;;;;6.91;100.00;100795.56;5018608;28;20136;-75
2022/11/06 08:13:19;;;;;;;6.95;3.55;;;;;;;7.01;100.00;100797.41;5036665;28;20057;-76
2022/11/06 08:15:45;;;;;;;5.30;2.90;;;;;;;7.05;99.63;100795.69;5021427;28;20073;-75
2022/11/06 08:18:12;;;;;;;4.00;3.30;;;;;;;7.16;98.37;100791.47;5017467;28;20049;-76
2022/11/06 08:20:39;;;;;;;3.53;3.13;;;;;;;7.21;98.14;100788.88;5030631;28;20047;-75
2022/11/06 08:23:10;;;;;;;4.93;4.03;;;;;;;7.27;97.61;100791.53;5030179;28;20135;-76
2022/11/06 08:25:37;;;;;;;3.75;2.80;;;;;;;7.29;97.54;100787.22;5027974;28;20341;-78
2022/11/06 08:28:04;;;;;;;6.05;2.95;;;;;;;7.36;97.15;100782.91;5026427;28;20041;-84
2022/11/06 08:30:32;;;;;;;7.15;4.53;;;;;;;7.39;96.96;100772.50;5015115;28;20056;-78
2022/11/06 08:33:06;;;;;;;4.68;3.40;;;;;;;7.39;97.35;100775.09;5033518;28;20041;-77
2022/11/06 08:35:35;;;;;;;4.20;3.45;;;;;;;7.48;96.61;100777.75;5032158;28;20123;-76
2022/11/06 08:38:03;;;;;;;4.25;3.78;;;;;;;7.53;96.37;100783.00;5021823;28;20045;-78
2022/11/06 08:40:29;;;;;;;6.18;3.78;;;;;;;7.56;96.17;100775.19;5030903;28;20060;-77
2022/11/06 08:43:04;;;;;;;6.93;3.22;;;;;;;7.62;95.84;100777.84;5031987;28;20037;-78
2022/11/06 08:45:31;;;;;;;3.42;3.13;;;;;;;7.73;94.87;100781.38;5030284;28;20041;-77
2022/11/06 08:48:03;;;;;;;9.05;3.85;;;;;;;7.81;94.53;100775.31;5014490;28;20436;-77
2022/11/06 08:50:33;;;;;;;4.90;3.17;;;;;;;7.93;93.48;100780.59;5039013;28;20049;-77
2022/11/06 08:53:02;;;;;;;3.53;3.22;;;;;;;8.08;93.00;100779.78;5031261;28;20045;-78
2022/11/06 08:55:33;;;;;;;5.75;3.75;;;;;;;8.25;91.08;100767.66;5049677;28;20040;-77
2022/11/06 08:58:00;;;;;;;5.35;2.67;;;;;;;8.40;90.00;100772.03;5021413;28;20460;-77
2022/11/06 09:00:27;;;;;;;7.22;3.88;;;;;;;8.52;89.82;100765.13;5009826;28;20054;-83
2022/11/06 09:03:07;;;;;;;10.13;3.58;;;;;;;8.61;88.49;100765.13;5018212;28;20755;-79
2022/11/06 09:05:33;;;;;;;3.25;3.00;;;;;;;8.65;88.28;100759.06;5023246;28;20729;-77
2022/11/06 09:08:00;;;;;;;3.60;3.08;;;;;;;8.69;88.62;100752.94;5047059;28;20040;-80
2022/11/06 09:10:27;;;;;;;6.28;2.80;;;;;;;8.79;87.76;100764.28;5029591;28;20041;-77
2022/11/06 09:12:54;;;;;;;3.97;2.78;;;;;;;8.88;86.79;100752.97;5027397;28;20037;-78
2022/11/06 09:15:21;;;;;;;6.68;3.28;;;;;;;8.91;86.22;100752.97;5044348;28;20124;-77
2022/11/06 09:17:50;;;;;;;4.47;2.60;;;;;;;8.89;86.44;100758.19;5021619;28;20477;-78
2022/11/06 09:20:24;;;;;;;5.38;3.40;;;;;;;8.86;86.70;100760.78;5027610;28;20511;-76
2022/11/06 09:22:52;;;;;;;3.72;2.15;;;;;;;8.86;86.11;100757.31;5007918;28;20589;-77
2022/11/06 09:25:19;;;;;;;6.20;2.95;;;;;;;8.85;86.47;100753.84;5045361;28;20045;-78
2022/11/06 09:27:51;;;;;;;4.65;2.55;;;;;;;8.87;85.94;100769.50;5028271;28;20045;-78
2022/11/06 09:30:21;;;;;;;3.10;2.80;;;;;;;8.83;85.86;100752.97;5023296;28;20064;-76
2022/11/06 09:32:52;;;;;;;6.53;3.47;;;;;;;8.76;86.56;100746.00;5032229;28;20060;-77
2022/11/06 09:35:19;;;;;;;5.47;2.50;;;;;;;8.71;86.49;100748.63;5028322;28;20148;-78
2022/11/06 09:37:46;;;;;;;6.45;3.45;;;;;;;8.70;86.73;100743.41;5018043;28;20108;-76
2022/11/06 09:40:34;;;;;;;3.70;2.67;;;;;;;8.75;86.88;100732.09;5025687;28;20178;-75
2022/11/06 09:43:32;;;;;;;5.00;2.72;;;;;;;8.82;86.36;100719.03;5023514;28;20068;-78
2022/11/06 09:46:20;;;;;;;2.85;2.65;;;;;;;8.86;85.87;100724.25;5023759;28;20048;-80
2022/11/06 09:48:55;;;;;;;3.72;2.58;;;;;;;8.87;86.18;100719.91;5026500;28;20037;-78
2022/11/06 09:51:46;;;;;;;3.50;2.65;;;;;;;8.93;86.20;100718.16;5029475;28;20041;-77
2022/11/06 09:54:38;;;;;;;5.00;2.17;;;;;;;9.08;85.39;100717.25;5042849;28;20130;-77
2022/11/06 09:57:18;;;;;;;3.20;2.35;;;;;;;9.23;84.57;100725.91;5027956;28;20076;-80
2022/11/06 09:59:46;;;;;;;2.72;2.20;;;;;;;9.36;84.04;100725.03;5017610;28;20050;-77
2022/11/06 10:02:29;;;;;;;3.22;2.33;;;;;;;9.45;83.44;100731.97;5032748;28;20057;-79
2022/11/06 10:04:58;;;;;;;2.15;1.98;;;;;;;9.48;83.08;100738.91;5021996;28;20120;-76
2022/11/06 10:07:41;;;;;;;3.15;2.15;;;;;;;9.46;83.01;100735.47;5036938;28;20045;-78
2022/11/06 10:10:16;;;;;;;4.30;2.50;;;;;;;9.43;83.08;100734.59;5028883;28;20061;-78
2022/11/06 10:13:24;;;;;;;3.05;2.20;;;;;;;9.38;83.09;100733.72;5029139;28;20145;-79
2022/11/06 10:16:10;;;;;;;4.82;2.13;;;;;;;9.38;83.51;100730.25;5029186;28;20064;-78
2022/11/06 10:18:56;;;;;;;2.50;1.75;;;;;;;9.37;83.58;100726.78;5017302;28;20045;-79
2022/11/06 10:21:25;;;;;;;4.20;2.33;;;;;;;9.40;83.87;100729.38;5028433;28;20689;-78
2022/11/06 10:23:58;;;;;;;7.18;2.00;;;;;;;9.42;83.67;100732.84;5006960;28;20069;-85
2022/11/06 10:26:37;;;;;;;2.65;2.45;;;;;;;9.44;83.38;100732.84;5029634;28;20551;-78
2022/11/06 10:29:26;;;;;;;3.58;2.33;;;;;;;9.47;83.52;100724.13;5022262;28;20068;-77
2022/11/06 10:32:46;;;;;;;3.55;2.63;;;;;;;9.50;83.41;100727.59;5013954;28;20050;-80
2022/11/06 10:35:22;;;;;;;2.92;1.80;;;;;;;9.49;83.52;100725.88;5025873;28;20054;-78
2022/11/06 10:37:56;;;;;;;5.70;3.28;;;;;;;9.51;83.59;100715.41;5030790;28;20049;-79
2022/11/06 10:40:26;;;;;;;3.70;2.60;;;;;;;9.52;83.93;100714.53;5048372;28;20045;-77
2022/11/06 10:43:12;;;;;;;6.53;2.75;;;;;;;9.51;84.15;100716.28;5034976;28;20048;-78
2022/11/06 10:45:45;;;;;;;3.85;2.35;;;;;;;9.53;84.24;100706.69;5037835;28;20111;-78
2022/11/06 10:48:32;;;;;;;5.50;2.67;;;;;;;9.53;84.16;100703.19;5028678;28;20088;-77
2022/11/06 10:51:32;;;;;;;3.58;2.60;;;;;;;9.58;84.10;100698.81;5033031;28;20773;-78
2022/11/06 10:54:21;;;;;;;2.83;2.08;;;;;;;9.62;83.60;100681.38;5045751;28;20039;-78
2022/11/06 10:57:16;;;;;;;5.75;2.83;;;;;;;9.62;84.27;100684.88;5029623;28;20450;-77
2022/11/06 10:59:43;;;;;;;2.60;2.40;;;;;;;9.63;84.01;100680.50;5033712;28;20488;-77
2022/11/06 11:02:26;;;;;;;2.80;2.30;;;;;;;9.69;83.69;100685.72;5035331;28;20049;-76
2022/11/06 11:04:53;;;;;;;3.53;2.60;;;;;;;9.76;83.35;100675.22;5048038;28;20073;-76
2022/11/06 11:07:19;;;;;;;5.90;2.72;;;;;;;9.82;82.99;100668.22;5034854;28;20052;-81
2022/11/06 11:09:48;;;;;;;6.00;3.00;;;;;;;9.78;83.04;100654.31;5026074;28;20111;-76
2022/11/06 11:12:29;;;;;;;3.90;2.95;;;;;;;9.82;82.80;100649.94;5031975;28;20046;-76
2022/11/06 11:15:10;;;;;;;4.78;2.92;;;;;;;9.85;82.33;100655.97;5035298;28;20052;-79
2022/11/06 11:17:37;;;;;;;6.78;2.58;;;;;;;9.91;81.30;100644.66;5052027;28;20073;-76
2022/11/06 11:20:31;;;;;;;3.33;1.90;;;;;;;9.93;80.65;100643.75;5035278;28;20056;-77
2022/11/06 11:23:22;;;;;;;3.95;2.30;;;;;;;9.89;80.81;100628.09;5051039;28;20129;-76
2022/11/06 11:25:53;;;;;;;4.43;2.58;;;;;;;9.95;80.21;100625.44;5030343;28;20048;-78
2022/11/06 11:28:41;;;;;;;4.32;2.13;;;;;;;10.03;79.93;100614.91;5043992;28;20049;-77
2022/11/06 11:31:16;;;;;;;2.75;2.03;;;;;;;10.15;78.70;100617.44;5040116;28;20083;-77
2022/11/06 11:33:54;;;;;;;2.63;1.85;;;;;;;10.35;76.94;100604.22;5016733;28;20072;-77
2022/11/06 11:36:21;;;;;;;4.18;2.20;;;;;;;10.51;76.59;100602.34;5034480;28;20056;-76
2022/11/06 11:38:48;;;;;;;3.15;2.50;;;;;;;10.64;76.00;100605.69;5031742;28;20042;-77
2022/11/06 11:41:21;;;;;;;6.15;2.33;;;;;;;10.78;74.38;100612.53;5028169;28;20073;-77
2022/11/06 11:44:16;;;;;;;2.08;1.98;;;;;;;10.85;74.42;100601.13;5034395;28;20041;-76
2022/11/06 11:46:54;;;;;;;6.20;2.15;;;;;;;10.89;73.67;100587.13;5025916;28;20045;-78
2022/11/06 11:49:33;;;;;;;3.60;2.20;;;;;;;10.96;72.67;100601.00;5046845;28;20041;-76
2022/11/06 11:52:03;;;;;;;1.95;1.80;;;;;;;11.01;71.61;100599.19;5031666;28;20053;-78
2022/11/06 11:54:33;;;;;;;1.70;1.60;;;;;;;11.07;71.46;100597.38;5031462;28;20120;-77
2022/11/06 11:57:05;;;;;;;2.75;1.38;;;;;;;11.12;71.57;100593.81;5052875;28;20045;-76
2022/11/06 11:59:48;;;;;;;2.75;1.70;;;;;;;11.17;70.64;100592.00;5045581;28;20183;-78
2022/11/06 12:02:35;;;;;;;4.68;1.92;;;;;;;11.21;70.85;100591.09;5046226;28;20744;-79
2022/11/06 12:05:09;;;;;;;2.90;1.50;;;;;;;11.17;70.21;100576.28;5011844;28;20136;-78
2022/11/06 12:07:38;;;;;;;;;;;;;;;11.17;68.77;100581.53;5029791;28;20040;-77
2022/11/06 12:10:36;;;;;;;2.70;1.63;;;;;;;11.16;68.19;100572.81;5031420;28;19927;-79